createdAt,value
2023-04-27T00:09:19.628Z,52.59
2023-04-27T00:19:42.227Z,52.59
2023-04-27T00:30:04.606Z,52.52
2023-04-27T00:40:27.214Z,52.66
2023-04-27T00:50:48.295Z,52.52
2023-04-27T01:01:10.442Z,52.68
2023-04-27T01:11:33.323Z,52.42
2023-04-27T01:21:54.745Z,53.16
2023-04-27T01:32:19.643Z,52.54
2023-04-27T01:42:41.099Z,53.06
2023-04-27T01:53:03.810Z,53.17
2023-04-27T02:03:25.718Z,53.17
2023-04-27T02:13:47.245Z,53.13
2023-04-27T02:24:10.177Z,53.12
2023-04-27T02:34:31.448Z,53.15
2023-04-27T02:44:53.316Z,53.15
2023-04-27T02:55:14.766Z,53.20
2023-04-27T03:05:37.417Z,53.37
2023-04-27T03:15:58.820Z,53.24
2023-04-27T03:26:20.738Z,53.09
2023-04-27T03:36:41.754Z,53.28
2023-04-27T03:47:09.314Z,53.38
2023-04-27T03:57:33.250Z,53.17
2023-04-27T04:07:54.801Z,53.60
2023-04-27T04:18:18.268Z,53.27
2023-04-27T04:28:39.704Z,53.47
2023-04-27T04:39:01.121Z,53.46
2023-04-27T04:49:22.463Z,53.64
2023-04-27T04:59:44.599Z,53.71
2023-04-27T05:10:06.321Z,53.64
2023-04-27T05:20:27.398Z,53.70
2023-04-27T05:30:48.739Z,53.88
2023-04-27T05:41:09.910Z,53.88
2023-04-27T05:51:31.395Z,54.19
2023-04-27T06:01:53.095Z,54.16
2023-04-27T06:12:14.637Z,54.47
2023-04-27T06:22:38.980Z,54.71
2023-04-27T06:33:00.257Z,54.18
2023-04-27T06:43:21.438Z,54.22
2023-04-27T06:53:42.659Z,54.07
2023-04-27T07:04:05.037Z,53.81
2023-04-27T07:14:26.967Z,53.32
2023-04-27T07:24:48.021Z,53.05
2023-04-27T07:35:10.064Z,53.12
2023-04-27T07:45:34.797Z,52.22
2023-04-27T07:55:56.306Z,52.38
2023-04-27T08:06:19.536Z,52.13
2023-04-27T08:16:42.089Z,51.46
2023-04-27T08:27:06.461Z,51.01
2023-04-27T08:37:27.817Z,50.98
2023-04-27T08:47:48.981Z,50.13
2023-04-27T08:58:10.317Z,50.71
2023-04-27T09:08:50.329Z,50.46
2023-04-27T09:19:12.137Z,49.88
2023-04-27T09:29:38.191Z,49.90
2023-04-27T09:39:59.594Z,49.84
2023-04-27T09:50:22.253Z,49.83
2023-04-27T10:00:58.529Z,49.81
2023-04-27T10:11:20.101Z,49.69
2023-04-27T10:22:02.363Z,49.51
2023-04-27T10:32:26.449Z,49.93
2023-04-27T10:42:49.808Z,49.75
2023-04-27T10:53:11.408Z,50.16
2023-04-27T11:03:33.327Z,49.88
2023-04-27T11:13:55.997Z,50.18
2023-04-27T11:24:17.482Z,50.27
2023-04-27T11:34:39.171Z,50.05
2023-04-27T11:45:08.169Z,50.12
2023-04-27T11:55:29.592Z,50.31
2023-04-27T12:05:51.613Z,50.75
2023-04-27T12:16:14.080Z,49.99
2023-04-27T12:26:35.646Z,50.53
2023-04-27T12:36:56.855Z,51.02
2023-04-27T12:47:38.452Z,50.38
2023-04-27T12:58:00.255Z,50.55
2023-04-27T13:08:21.831Z,50.51
2023-04-27T13:18:50.726Z,50.50
2023-04-27T13:29:11.781Z,50.46
2023-04-27T13:39:33.305Z,49.83
2023-04-27T13:49:55.051Z,50.26
2023-04-27T14:00:16.770Z,50.65
2023-04-27T14:10:38.570Z,50.76
2023-04-27T14:21:00.006Z,49.72
2023-04-27T14:31:21.641Z,50.22
2023-04-27T14:41:42.905Z,50.30
2023-04-27T14:52:04.917Z,50.65
2023-04-27T15:02:26.421Z,50.57
2023-04-27T15:12:47.852Z,50.90
2023-04-27T15:23:09.319Z,51.25
2023-04-27T15:33:30.809Z,51.31
2023-04-27T15:43:52.414Z,51.84
2023-04-27T15:54:13.822Z,51.56
2023-04-27T16:04:35.082Z,51.35
2023-04-27T16:14:59.609Z,51.74
2023-04-27T16:25:20.610Z,51.60
2023-04-27T16:35:42.041Z,52.05
2023-04-27T16:46:03.174Z,52.05
2023-04-27T16:56:34.343Z,51.54
2023-04-27T17:06:56.046Z,51.78
2023-04-27T17:17:17.070Z,52.08
2023-04-27T17:27:38.209Z,51.71
2023-04-27T17:37:59.569Z,51.49
2023-04-27T17:48:20.832Z,51.66
2023-04-27T17:58:42.277Z,51.61
2023-04-27T18:09:03.856Z,51.85
2023-04-27T18:19:25.408Z,51.85
2023-04-27T18:29:46.889Z,51.91
2023-04-27T18:40:09.312Z,52.19
2023-04-27T18:50:30.764Z,51.83
2023-04-27T19:00:51.846Z,51.83
2023-04-27T19:11:16.600Z,52.06
2023-04-27T19:21:39.410Z,52.07
2023-04-27T19:32:02.275Z,52.18
2023-04-27T19:42:25.171Z,52.41
2023-04-27T19:52:46.305Z,52.67
2023-04-27T20:03:07.713Z,52.11
2023-04-27T20:13:28.967Z,53.20
2023-04-27T20:23:50.470Z,52.76
2023-04-27T20:34:12.060Z,52.52
2023-04-27T20:44:34.383Z,52.49
2023-04-27T20:54:55.871Z,52.58
2023-04-27T21:05:17.210Z,52.30
2023-04-27T21:15:38.698Z,52.00
2023-04-27T21:25:59.874Z,52.36
2023-04-27T21:36:21.769Z,52.25
2023-04-27T21:46:43.059Z,52.69
2023-04-27T21:57:04.738Z,53.19
2023-04-27T22:07:26.837Z,53.36
2023-04-27T22:17:47.781Z,52.71
2023-04-27T22:28:09.450Z,52.56
2023-04-27T22:38:30.961Z,52.82
2023-04-27T22:48:53.158Z,53.04
2023-04-27T22:59:14.454Z,52.53
2023-04-27T23:09:36.851Z,51.96
2023-04-27T23:19:59.360Z,52.50
2023-04-27T23:30:21.986Z,52.17
2023-04-27T23:40:43.721Z,52.53
2023-04-27T23:51:05.582Z,52.36
